Tropical Cyclones
[Index]
Main Index Home Page Stock Weather Photos Extreme Storms Discussion Storm News and Storm Chasing Reports Tropical Cyclones / Hurricanes / Typhoons Weather Data and Links Wild Fires / Bushfires Weather Observation Techniques Weather Picture Catalogue Tornado Pictures and Reports Stock Video Footage and DVDs for sale
Season 2003-2004 Tropical Cyclone JUBA Track Map
Season 2003-2004 Summaries (Operational Data): [AU] [SIO] [SPAC] [SH]
<<- Previous TC | 2003-2004 Season | Next TC ->>

click for intensity scale information  Lat/long Grid: Show Hide

 Date Labels: Show Hide

Operational Tropical Cyclone Data : JTWC Advisories

Name: JUBA
Number: 0423

05 May 2004 12:00 UTC to 15 May 2004 06:00 UTC

    date/time    lat    long     hPa   cat  kts
2004-05-05 12    7.0    77.0    1003         25          
2004-05-05 18    8.5    76.5    1001         25          
2004-05-06 00    8.4    76.2    1000         25          
2004-05-06 06    7.8    74.7    1000         25          
2004-05-06 12    7.9    75.0    1000         25          
2004-05-06 18    7.9    74.7    1000         25          
2004-05-07 06    8.0    78.3    1000         25          
2004-05-12 06   11.0    68.9    1002         25          
2004-05-12 12   11.4    68.7     999         30          
2004-05-12 18   11.6    68.4     990    1    45          
2004-05-13 00   12.1    68.0     990    1    45          
2004-05-13 06   12.7    67.6     985    2    50          
2004-05-13 12   13.6    67.5     980    2    55          
2004-05-13 18   14.1    67.3     980    2    55          
2004-05-14 00   14.5    67.4     982    2    50          
2004-05-14 06   15.1    67.2     985    2    50          
2004-05-14 12   14.6    66.3     989    1    45          
2004-05-14 18   14.2    65.8     996         30          
2004-05-15 00   14.7    64.9    1000         25          
2004-05-15 06   15.2    64.4    1002         20          
Winds are 10-min average.

Tropical cyclone tracks developed by Michael Bath using operational warnings and advisories and Google Maps.


[Australian Severe Weather index] [Copyright Notice] [Email Contacts] [Search This Site] [Privacy Policy]
Document: tropical_cyclone_juba.htm Updated: 28 May 2013